createdAt,value
2018-07-24T00:00:32.686Z,23.50
2018-07-24T00:03:07.890Z,23.40
2018-07-24T00:05:43.068Z,23.30
2018-07-24T00:08:18.312Z,23.30
2018-07-24T00:10:53.768Z,23.40
2018-07-24T00:13:29.362Z,23.50
2018-07-24T00:16:04.441Z,23.50
2018-07-24T00:18:39.645Z,23.50
2018-07-24T00:21:14.744Z,23.50
2018-07-24T00:23:50.447Z,23.30
2018-07-24T00:26:25.681Z,23.20
2018-07-24T00:29:01.721Z,23.20
2018-07-24T00:31:36.991Z,23.30
2018-07-24T00:34:12.352Z,23.20
2018-07-24T00:36:47.528Z,23.30
2018-07-24T00:41:57.571Z,23.30
2018-07-24T00:44:32.820Z,23.10
2018-07-24T00:47:07.887Z,23.00
2018-07-24T00:49:43.439Z,22.90
2018-07-24T00:52:18.703Z,22.80
2018-07-24T00:54:54.104Z,22.70
2018-07-24T01:00:04.791Z,22.70
2018-07-24T01:02:39.870Z,22.90
2018-07-24T01:05:15.170Z,22.90
2018-07-24T01:07:50.323Z,22.80
2018-07-24T01:10:25.722Z,22.70
2018-07-24T01:13:00.890Z,22.70
2018-07-24T01:15:36.094Z,22.80
2018-07-24T01:18:11.269Z,22.80
2018-07-24T01:20:46.596Z,22.80
2018-07-24T01:23:21.951Z,22.80
2018-07-24T01:25:57.044Z,22.90
2018-07-24T01:28:32.543Z,22.90
2018-07-24T01:31:08.064Z,22.80
2018-07-24T01:33:43.274Z,22.50
2018-07-24T01:36:18.353Z,22.50
2018-07-24T01:38:53.618Z,22.50
2018-07-24T01:41:28.955Z,22.50
2018-07-24T01:44:04.324Z,22.50
2018-07-24T01:46:39.449Z,22.50
2018-07-24T01:49:14.721Z,22.50
2018-07-24T01:51:49.862Z,22.50
2018-07-24T01:54:24.969Z,22.60
2018-07-24T01:57:00.080Z,22.50
2018-07-24T01:59:35.435Z,22.60
2018-07-24T02:02:10.563Z,22.60
2018-07-24T02:04:45.956Z,22.60
2018-07-24T02:07:21.171Z,22.60
2018-07-24T02:09:56.416Z,22.50
2018-07-24T02:12:31.699Z,22.60
2018-07-24T02:15:07.217Z,22.50
2018-07-24T02:20:17.599Z,22.40
2018-07-24T02:22:52.919Z,22.30
2018-07-24T02:25:28.231Z,22.20
2018-07-24T02:28:03.532Z,22.10
2018-07-24T02:30:38.944Z,22.10
2018-07-24T02:33:14.204Z,22.20
2018-07-24T02:35:49.512Z,22.30
2018-07-24T02:38:24.919Z,22.30
2018-07-24T02:41:00.424Z,22.10
2018-07-24T02:43:35.754Z,22.20
2018-07-24T02:46:11.111Z,22.30
2018-07-24T02:48:46.295Z,22.30
2018-07-24T02:51:21.592Z,22.40
2018-07-24T02:53:56.820Z,22.30
2018-07-24T02:56:32.142Z,22.20
2018-07-24T02:59:07.619Z,22.10
2018-07-24T03:01:42.809Z,21.90
2018-07-24T03:04:18.420Z,21.90
2018-07-24T03:06:54.365Z,21.80
2018-07-24T03:09:29.693Z,21.60
2018-07-24T03:12:04.963Z,21.50
2018-07-24T03:14:40.662Z,21.50
2018-07-24T03:17:15.760Z,21.50
2018-07-24T03:19:51.067Z,21.60
2018-07-24T03:22:26.343Z,21.60
2018-07-24T03:25:01.429Z,21.60
2018-07-24T03:30:11.784Z,21.80
2018-07-24T03:32:47.160Z,21.70
2018-07-24T03:35:22.487Z,21.80
2018-07-24T03:37:57.768Z,21.80
2018-07-24T03:40:32.876Z,21.80
2018-07-24T03:43:08.200Z,21.90
2018-07-24T03:48:18.213Z,21.70
2018-07-24T03:50:53.601Z,21.70
2018-07-24T03:53:28.915Z,21.70
2018-07-24T03:56:04.290Z,21.70
2018-07-24T03:58:39.354Z,21.70
2018-07-24T04:01:14.736Z,21.80
2018-07-24T04:06:24.841Z,21.80
2018-07-24T04:08:59.999Z,21.70
2018-07-24T04:11:35.212Z,21.60
2018-07-24T04:14:10.507Z,21.60
2018-07-24T04:19:20.844Z,21.30
2018-07-24T04:21:55.991Z,21.20
2018-07-24T04:24:31.375Z,21.10
2018-07-24T04:27:06.899Z,21.10
2018-07-24T04:29:42.124Z,21.10
2018-07-24T04:32:17.325Z,21.20
2018-07-24T04:34:52.615Z,21.30
2018-07-24T04:37:27.710Z,21.20
2018-07-24T04:40:03.035Z,21.50
2018-07-24T04:45:12.883Z,21.30
2018-07-24T04:47:48.006Z,21.20
2018-07-24T04:50:23.266Z,21.20
2018-07-24T04:52:58.509Z,21.20
2018-07-24T04:55:33.784Z,21.20
2018-07-24T04:58:08.894Z,21.20
2018-07-24T05:00:44.294Z,21.30
2018-07-24T05:03:19.349Z,21.30
2018-07-24T05:05:54.626Z,21.30
2018-07-24T05:08:29.951Z,21.40
2018-07-24T05:11:05.279Z,21.50
2018-07-24T05:13:41.020Z,21.50
2018-07-24T05:16:16.345Z,21.50
2018-07-24T05:18:51.678Z,21.50
2018-07-24T05:21:27.290Z,21.50
2018-07-24T05:24:02.743Z,21.50
2018-07-24T05:26:37.820Z,21.60
2018-07-24T05:29:13.108Z,21.60
2018-07-24T05:31:48.271Z,21.50
2018-07-24T05:34:23.568Z,21.60
2018-07-24T05:36:58.648Z,21.60
2018-07-24T05:39:33.939Z,21.70
2018-07-24T05:42:09.053Z,21.70
2018-07-24T05:44:44.211Z,21.70
2018-07-24T05:47:19.491Z,21.90
2018-07-24T05:49:55.004Z,21.90
2018-07-24T05:52:30.181Z,22.00
2018-07-24T05:55:05.388Z,22.00
2018-07-24T05:57:40.607Z,22.00
2018-07-24T06:00:15.819Z,22.10
2018-07-24T06:02:51.065Z,22.20
2018-07-24T06:05:26.418Z,22.20
2018-07-24T06:08:01.576Z,22.30
2018-07-24T06:10:36.839Z,22.40
2018-07-24T06:13:12.254Z,22.40
2018-07-24T06:15:47.447Z,22.40
2018-07-24T06:18:22.705Z,22.50
2018-07-24T06:20:57.848Z,22.60
2018-07-24T06:23:33.821Z,22.70
2018-07-24T06:26:09.084Z,22.90
2018-07-24T06:28:44.220Z,23.00
2018-07-24T06:33:54.259Z,23.20
2018-07-24T06:36:29.932Z,23.10
2018-07-24T06:39:09.803Z,23.10
2018-07-24T06:41:44.911Z,23.20
2018-07-24T06:46:54.998Z,23.30
2018-07-24T06:49:30.283Z,23.40
2018-07-24T06:52:05.604Z,23.40
2018-07-24T06:54:41.251Z,23.50
2018-07-24T06:57:16.489Z,23.50
2018-07-24T06:59:52.200Z,23.70
2018-07-24T07:02:27.722Z,23.70
2018-07-24T07:05:02.939Z,23.90
2018-07-24T07:07:38.298Z,23.90
2018-07-24T07:10:13.621Z,24.00
2018-07-24T07:12:49.589Z,24.10
2018-07-24T07:15:24.874Z,24.20
2018-07-24T07:18:00.179Z,24.30
2018-07-24T07:20:35.681Z,24.40
2018-07-24T07:23:11.038Z,24.50
2018-07-24T07:25:46.453Z,24.50
2018-07-24T07:28:21.616Z,24.60
2018-07-24T07:30:57.041Z,24.70
2018-07-24T07:33:32.347Z,24.80
2018-07-24T07:36:07.579Z,25.00
2018-07-24T07:38:42.870Z,25.00
2018-07-24T07:41:18.334Z,25.10
2018-07-24T07:43:53.778Z,25.30
2018-07-24T07:46:28.880Z,25.40
2018-07-24T07:49:04.127Z,25.50
2018-07-24T07:51:39.361Z,25.60
2018-07-24T07:54:14.427Z,25.80
2018-07-24T07:56:49.735Z,25.90
2018-07-24T07:59:25.538Z,26.10
2018-07-24T08:02:00.741Z,26.30
2018-07-24T08:04:36.245Z,26.30
2018-07-24T08:07:11.497Z,26.50
2018-07-24T08:09:47.114Z,26.50
2018-07-24T08:12:22.212Z,26.70
2018-07-24T08:14:57.597Z,26.70
2018-07-24T08:17:32.888Z,26.70
2018-07-24T08:20:08.310Z,26.70
2018-07-24T08:25:18.308Z,27.20
2018-07-24T08:27:53.892Z,27.20
2018-07-24T08:30:28.961Z,27.30
2018-07-24T08:33:04.316Z,27.40
2018-07-24T08:35:39.484Z,27.60
2018-07-24T08:38:14.912Z,27.70
2018-07-24T08:40:50.053Z,27.80
2018-07-24T08:43:25.462Z,27.90
2018-07-24T08:46:00.724Z,28.00
2018-07-24T08:48:36.595Z,28.00
2018-07-24T08:51:12.071Z,28.00
2018-07-24T08:53:47.684Z,28.10
2018-07-24T08:56:22.373Z,28.20
2018-07-24T09:01:32.402Z,28.60
2018-07-24T09:04:07.798Z,28.70
2018-07-24T09:06:42.869Z,28.70
2018-07-24T09:09:18.113Z,28.70
2018-07-24T09:11:53.163Z,28.60
2018-07-24T09:14:28.519Z,28.60
2018-07-24T09:19:38.780Z,28.80
2018-07-24T09:22:13.994Z,29.10
2018-07-24T09:24:49.253Z,29.10
2018-07-24T09:29:59.664Z,29.10
2018-07-24T09:32:34.832Z,29.20
2018-07-24T09:35:10.091Z,29.40
2018-07-24T09:37:45.308Z,29.40
2018-07-24T09:40:20.572Z,29.50
2018-07-24T09:42:55.623Z,29.40
2018-07-24T09:45:30.770Z,29.50
2018-07-24T09:48:06.079Z,29.50
2018-07-24T09:50:41.650Z,29.80
2018-07-24T09:53:16.817Z,29.80
2018-07-24T09:55:52.221Z,29.80
2018-07-24T09:58:27.223Z,29.90
2018-07-24T10:01:07.990Z,30.00
2018-07-24T10:03:43.303Z,30.20
2018-07-24T10:06:18.552Z,30.10
2018-07-24T10:11:28.416Z,30.30
2018-07-24T10:14:04.104Z,30.40
2018-07-24T10:16:39.624Z,30.40
2018-07-24T10:19:14.653Z,30.30
2018-07-24T10:21:49.830Z,30.30
2018-07-24T10:26:59.988Z,30.30
2018-07-24T10:29:35.067Z,30.60
2018-07-24T10:32:10.794Z,30.80
2018-07-24T10:34:45.990Z,30.80
2018-07-24T10:37:21.227Z,30.90
2018-07-24T10:40:07.235Z,31.10
2018-07-24T10:42:42.412Z,31.20
2018-07-24T10:45:17.834Z,31.30
2018-07-24T10:47:52.987Z,31.20
2018-07-24T10:50:28.299Z,31.10
2018-07-24T10:53:04.066Z,31.10
2018-07-24T10:55:39.163Z,31.20
2018-07-24T10:58:14.458Z,31.40
2018-07-24T11:00:49.587Z,31.30
2018-07-24T11:03:24.953Z,31.40
2018-07-24T11:06:00.122Z,31.50
2018-07-24T11:08:35.788Z,31.40
2018-07-24T11:11:11.767Z,31.40
2018-07-24T11:13:47.059Z,31.40
2018-07-24T11:16:22.158Z,31.40
2018-07-24T11:18:57.396Z,31.50
2018-07-24T11:21:32.640Z,31.70
2018-07-24T11:24:08.144Z,31.80
2018-07-24T11:26:43.462Z,31.90
2018-07-24T11:29:18.533Z,32.00
2018-07-24T11:31:53.688Z,32.00
2018-07-24T11:34:29.060Z,31.80
2018-07-24T11:37:04.319Z,31.50
2018-07-24T11:39:39.877Z,31.50
2018-07-24T11:42:15.278Z,31.60
2018-07-24T11:44:50.490Z,31.70
2018-07-24T11:47:25.749Z,31.70
2018-07-24T11:50:00.832Z,31.90
2018-07-24T11:52:36.052Z,32.20
2018-07-24T11:55:11.551Z,32.30
2018-07-24T11:57:47.440Z,32.40
2018-07-24T12:00:22.466Z,32.30
2018-07-24T12:02:57.965Z,32.30
2018-07-24T12:05:33.175Z,32.40
2018-07-24T12:08:08.667Z,32.40
2018-07-24T12:10:43.817Z,32.50
2018-07-24T12:13:19.019Z,32.40
2018-07-24T12:18:29.186Z,32.40
2018-07-24T12:21:04.327Z,32.40
2018-07-24T12:23:39.476Z,32.40
2018-07-24T12:26:14.670Z,32.40
2018-07-24T12:28:50.097Z,32.50
2018-07-24T12:31:25.311Z,32.70
2018-07-24T12:34:00.430Z,32.90
2018-07-24T12:36:35.847Z,33.20
2018-07-24T12:41:47.200Z,32.70
2018-07-24T12:44:22.502Z,32.90
2018-07-24T12:46:57.806Z,33.00
2018-07-24T12:49:32.928Z,33.10
2018-07-24T12:52:08.103Z,33.40
2018-07-24T12:54:43.587Z,33.60
2018-07-24T12:57:18.671Z,33.80
2018-07-24T12:59:53.871Z,34.20
2018-07-24T13:02:29.018Z,34.30
2018-07-24T13:05:04.312Z,34.20
2018-07-24T13:07:40.084Z,34.20
2018-07-24T13:10:15.496Z,34.40
2018-07-24T13:12:50.831Z,33.90
2018-07-24T13:15:25.963Z,33.70
2018-07-24T13:18:01.237Z,33.40
2018-07-24T13:20:36.452Z,33.50
2018-07-24T13:23:11.775Z,33.50
2018-07-24T13:25:47.081Z,33.40
2018-07-24T13:28:22.380Z,33.60
2018-07-24T13:30:58.527Z,33.60
2018-07-24T13:33:33.649Z,33.80
2018-07-24T13:36:09.008Z,34.10
2018-07-24T13:38:44.793Z,34.40
2018-07-24T13:41:19.955Z,34.40
2018-07-24T13:43:55.273Z,34.40
2018-07-24T13:46:30.437Z,34.50
2018-07-24T13:49:05.623Z,34.50
2018-07-24T13:51:41.054Z,34.90
2018-07-24T13:54:16.213Z,35.10
2018-07-24T13:56:51.779Z,35.10
2018-07-24T13:59:27.309Z,35.10
2018-07-24T14:02:02.520Z,34.90
2018-07-24T14:07:12.413Z,34.40
2018-07-24T14:09:47.527Z,34.40
2018-07-24T14:14:57.695Z,34.30
2018-07-24T14:17:32.906Z,34.50
2018-07-24T14:20:08.966Z,34.80
2018-07-24T14:22:44.203Z,35.00
2018-07-24T14:25:19.651Z,35.30
2018-07-24T14:27:54.889Z,35.40
2018-07-24T14:30:30.255Z,35.50
2018-07-24T14:33:05.519Z,35.30
2018-07-24T14:35:40.893Z,35.50
2018-07-24T14:38:16.300Z,35.30
2018-07-24T14:40:51.843Z,35.40
2018-07-24T14:43:26.920Z,35.50
2018-07-24T14:46:02.229Z,35.40
2018-07-24T14:48:37.439Z,35.30
2018-07-24T14:51:12.623Z,35.40
2018-07-24T14:53:47.917Z,35.40
2018-07-24T14:56:23.353Z,34.90
2018-07-24T14:58:58.562Z,34.50
2018-07-24T15:01:33.883Z,34.40
2018-07-24T15:04:09.624Z,34.20
2018-07-24T15:06:44.957Z,34.20
2018-07-24T15:09:20.299Z,34.10
2018-07-24T15:11:55.415Z,34.20
2018-07-24T15:14:30.595Z,34.20
2018-07-24T15:17:05.726Z,34.00
2018-07-24T15:19:40.978Z,34.00
2018-07-24T15:22:16.158Z,33.90
2018-07-24T15:24:51.315Z,34.00
2018-07-24T15:27:26.783Z,34.00
2018-07-24T15:30:02.735Z,33.80
2018-07-24T15:32:37.882Z,33.70
2018-07-24T15:37:47.867Z,33.60
2018-07-24T15:40:22.987Z,33.60
2018-07-24T15:42:58.135Z,33.50
2018-07-24T15:45:33.430Z,33.40
2018-07-24T15:48:08.542Z,33.40
2018-07-24T15:50:43.710Z,33.20
2018-07-24T15:53:18.802Z,33.20
2018-07-24T15:55:55.155Z,33.20
2018-07-24T15:58:30.542Z,33.40
2018-07-24T16:01:06.310Z,33.30
2018-07-24T16:03:41.540Z,33.30
2018-07-24T16:06:16.883Z,33.30
2018-07-24T16:11:27.487Z,33.30
2018-07-24T16:14:02.572Z,33.30
2018-07-24T16:16:38.364Z,33.30
2018-07-24T16:19:13.626Z,33.30
2018-07-24T16:21:49.019Z,33.20
2018-07-24T16:24:24.426Z,33.20
2018-07-24T16:27:00.137Z,33.20
2018-07-24T16:29:35.267Z,33.20
2018-07-24T16:32:10.664Z,33.20
2018-07-24T16:34:46.201Z,33.10
2018-07-24T16:37:21.340Z,33.10
2018-07-24T16:39:56.968Z,33.00
2018-07-24T16:42:32.435Z,33.00
2018-07-24T16:45:07.659Z,32.90
2018-07-24T16:47:42.845Z,32.90
2018-07-24T16:50:18.129Z,32.90
2018-07-24T16:52:53.529Z,32.90
2018-07-24T16:55:28.535Z,32.80
2018-07-24T16:58:04.108Z,32.80
2018-07-24T17:00:39.382Z,32.70
2018-07-24T17:03:14.715Z,32.60
2018-07-24T17:05:49.912Z,32.70
2018-07-24T17:08:25.123Z,32.80
2018-07-24T17:11:00.308Z,32.90
2018-07-24T17:13:35.847Z,32.80
2018-07-24T17:16:11.246Z,32.80
2018-07-24T17:18:46.711Z,32.70
2018-07-24T17:21:22.137Z,32.70
2018-07-24T17:23:57.803Z,32.70
2018-07-24T17:26:33.037Z,32.80
2018-07-24T17:29:08.471Z,32.70
2018-07-24T17:31:43.954Z,32.60
2018-07-24T17:34:19.356Z,32.70
2018-07-24T17:36:54.698Z,32.60
2018-07-24T17:39:30.675Z,32.70
2018-07-24T17:42:06.388Z,32.70
2018-07-24T17:44:41.825Z,32.70
2018-07-24T17:47:17.048Z,32.70
2018-07-24T17:49:52.292Z,32.70
2018-07-24T17:52:27.886Z,32.60
2018-07-24T17:55:03.188Z,32.50
2018-07-24T17:57:38.431Z,32.50
2018-07-24T18:00:13.753Z,32.50
2018-07-24T18:02:49.540Z,32.50
2018-07-24T18:05:24.902Z,32.40
2018-07-24T18:08:00.316Z,32.40
2018-07-24T18:10:35.783Z,32.40
2018-07-24T18:13:11.096Z,32.30
2018-07-24T18:15:46.751Z,32.20
2018-07-24T18:18:21.913Z,32.10
2018-07-24T18:20:57.236Z,32.10
2018-07-24T18:23:32.605Z,32.00
2018-07-24T18:26:07.844Z,32.10
2018-07-24T18:28:43.333Z,32.10
2018-07-24T18:31:18.586Z,32.10
2018-07-24T18:33:53.902Z,32.00
2018-07-24T18:36:29.233Z,31.80
2018-07-24T18:39:06.810Z,31.60
2018-07-24T18:41:42.136Z,31.50
2018-07-24T18:44:17.368Z,31.50
2018-07-24T18:46:53.278Z,31.30
2018-07-24T18:49:28.760Z,31.30
2018-07-24T18:52:03.835Z,31.30
2018-07-24T18:54:38.938Z,31.20
2018-07-24T18:57:14.263Z,31.10
2018-07-24T18:59:49.492Z,31.00
2018-07-24T19:02:24.754Z,30.90
2018-07-24T19:05:00.475Z,30.80
2018-07-24T19:07:35.852Z,30.80
2018-07-24T19:10:11.099Z,30.70
2018-07-24T19:12:46.344Z,30.70
2018-07-24T19:15:21.735Z,30.60
2018-07-24T19:17:56.936Z,30.50
2018-07-24T19:20:32.178Z,30.50
2018-07-24T19:23:07.567Z,30.40
2018-07-24T19:25:42.843Z,30.30
2018-07-24T19:28:18.084Z,30.20
2018-07-24T19:33:28.356Z,30.20
2018-07-24T19:36:03.638Z,30.20
2018-07-24T19:38:38.709Z,30.10
2018-07-24T19:41:13.935Z,30.10
2018-07-24T19:43:49.353Z,30.00
2018-07-24T19:46:24.635Z,29.90
2018-07-24T19:48:59.995Z,29.80
2018-07-24T19:51:35.891Z,29.70
2018-07-24T19:54:11.368Z,29.70
2018-07-24T19:56:46.516Z,29.60
2018-07-24T19:59:21.761Z,29.60
2018-07-24T20:01:56.930Z,29.40
2018-07-24T20:04:32.188Z,29.40
2018-07-24T20:07:07.401Z,29.30
2018-07-24T20:09:42.792Z,29.30
2018-07-24T20:12:18.455Z,29.30
2018-07-24T20:14:53.651Z,29.20
2018-07-24T20:17:28.868Z,29.20
2018-07-24T20:20:04.366Z,29.20
2018-07-24T20:22:40.232Z,29.10
2018-07-24T20:25:15.340Z,29.10
2018-07-24T20:27:50.724Z,29.10
2018-07-24T20:30:26.056Z,29.00
2018-07-24T20:33:01.292Z,29.00
2018-07-24T20:38:12.034Z,29.00
2018-07-24T20:40:48.477Z,28.90
2018-07-24T20:43:24.227Z,28.90
2018-07-24T20:46:00.407Z,28.90
2018-07-24T20:48:35.485Z,28.80
2018-07-24T20:51:11.275Z,28.80
2018-07-24T20:53:46.585Z,28.60
2018-07-24T20:56:21.777Z,28.50
2018-07-24T20:58:57.034Z,28.50
2018-07-24T21:01:32.168Z,28.40
2018-07-24T21:04:07.692Z,28.50
2018-07-24T21:06:43.058Z,28.40
2018-07-24T21:09:18.739Z,28.40
2018-07-24T21:11:54.152Z,28.40
2018-07-24T21:14:29.243Z,28.30
2018-07-24T21:17:05.162Z,28.30
2018-07-24T21:20:17.308Z,28.30
2018-07-24T21:22:52.778Z,28.30
2018-07-24T21:25:28.458Z,28.20
2018-07-24T21:28:04.573Z,28.20
2018-07-24T21:30:39.617Z,28.20
2018-07-24T21:33:15.214Z,28.20
2018-07-24T21:35:50.475Z,28.20
2018-07-24T21:41:01.109Z,28.10
2018-07-24T21:43:36.655Z,28.10
2018-07-24T21:46:11.932Z,28.10
2018-07-24T21:51:21.785Z,28.20
2018-07-24T21:53:57.043Z,28.20
2018-07-24T21:56:32.297Z,28.20
2018-07-24T21:59:07.519Z,28.10
2018-07-24T22:01:42.772Z,28.10
2018-07-24T22:04:17.908Z,28.10
2018-07-24T22:06:53.446Z,28.10
2018-07-24T22:09:28.651Z,28.10
2018-07-24T22:12:03.910Z,28.00
2018-07-24T22:14:39.851Z,28.00
2018-07-24T22:17:15.133Z,28.00
2018-07-24T22:19:50.415Z,28.00
2018-07-24T22:22:25.594Z,27.90
2018-07-24T22:25:00.933Z,27.80
2018-07-24T22:27:36.288Z,27.80
2018-07-24T22:30:11.870Z,27.70
2018-07-24T22:32:47.295Z,27.70
2018-07-24T22:37:57.566Z,27.50
2018-07-24T22:43:07.792Z,27.20
2018-07-24T22:45:42.967Z,27.20
2018-07-24T22:48:18.135Z,27.20
2018-07-24T22:50:53.391Z,27.20
2018-07-24T22:53:28.647Z,27.20
2018-07-24T22:56:03.785Z,27.20
2018-07-24T22:58:39.208Z,27.10
2018-07-24T23:01:14.299Z,27.10
2018-07-24T23:03:49.398Z,27.10
2018-07-24T23:06:24.726Z,27.00
2018-07-24T23:08:59.982Z,26.90
2018-07-24T23:11:35.250Z,26.80
2018-07-24T23:14:10.567Z,26.70
2018-07-24T23:16:45.691Z,26.70
2018-07-24T23:21:55.807Z,26.70
2018-07-24T23:24:31.058Z,26.60
2018-07-24T23:27:06.675Z,26.60
2018-07-24T23:29:41.910Z,26.50
2018-07-24T23:32:17.061Z,26.50
2018-07-24T23:34:52.196Z,26.50
2018-07-24T23:37:27.219Z,26.40
2018-07-24T23:40:02.455Z,26.50
2018-07-24T23:42:37.676Z,26.40
2018-07-24T23:45:12.885Z,26.40
2018-07-24T23:47:48.144Z,26.30
2018-07-24T23:50:23.584Z,26.30
2018-07-24T23:52:58.848Z,26.30
2018-07-24T23:55:35.249Z,26.30
2018-07-24T23:58:10.873Z,26.20
